Data for 11/07/2013

Time Sea-Level Adjusted Pressure Absolute Pressure Temperature Relative Humidity Dew Point   
(mb) (inHg) (mb) (inHg) (C) (F) (%) (C) (F)
00:05 1026 30.3 855 25.25 1.3 34.3 62 -5.2 22.7
00:10 1026 30.3 855 25.25 1.3 34.3 62 -5.2 22.7
00:15 1026 30.3 855 25.25 1.3 34.3 62 -5.3 22.5
00:20 1026 30.3 855 25.25 1.3 34.4 62 -5.1 22.8
00:25 1026 30.3 855 25.25 1.3 34.3 62 -5.2 22.7
00:30 1026 30.3 855 25.25 1.3 34.3 59 -5.8 21.5
00:35 1026 30.3 855 25.25 1.3 34.4 55 -6.6 20
00:40 1026 30.3 855 25.25 1.5 34.7 57 -6 21.1
00:45 1026 30.3 855 25.25 1.6 34.9 55 -6.4 20.5
00:50 1026 30.3 855 25.25 1.7 35 56 -6.1 21
00:55 1026 30.3 855 25.25 1.6 34.9 56 -6.2 20.9
01:00 1026 30.3 855 25.25 1.7 35.1 58 -5.6 21.9
01:05 1026 30.3 855 25.25 1.7 35.1 58 -5.6 21.9
01:10 1026 30.3 855 25.25 1.7 35 60 -5.3 22.5
01:15 1026 30.3 855 25.25 1.7 35 61 -5.1 22.8
01:20 1026 30.3 855 25.25 1.7 35.1 60 -5.1 22.8
01:25 1026 30.3 855 25.25 1.7 35 62 -4.8 23.3
01:30 1026 30.3 855 25.25 1.7 35 62 -4.9 23.3
01:35 1026 30.3 855 25.25 1.6 34.9 62 -4.8 23.3
01:40 1026 30.3 855 25.25 1.6 34.8 62 -4.9 23.2
01:45 1026 30.3 855 25.25 1.5 34.8 62 -4.9 23.2
01:50 1026 30.3 855 25.25 1.6 34.9 62 -4.9 23.2
01:55 1026 30.3 855 25.25 1.7 35 61 -5 23
02:00 1026 30.3 855 25.25 1.8 35.2 61 -4.9 23.2
02:05 1026 30.3 855 25.25 1.8 35.3 61 -4.9 23.1
02:10 1026 30.3 855 25.25 1.8 35.3 61 -4.9 23.2
02:15 1026 30.3 855 25.25 1.7 35.1 61 -5 23
02:20 1026 30.3 855 25.25 1.6 34.8 63 -4.7 23.5
02:25 1026 30.3 855 25.25 1.1 33.9 67 -4.5 24
02:30 1026 30.3 855 25.25 0.8 33.4 68 -4.5 23.9
02:35 1025 30.27 855 25.25 0.8 33.4 67 -4.7 23.5
02:40 1025 30.27 855 25.25 0.8 33.5 66 -4.8 23.4
02:45 1025 30.27 854 25.22 0.9 33.6 66 -4.8 23.3
02:50 1025 30.27 854 25.22 1 33.8 65 -4.8 23.3
02:55 1025 30.27 854 25.22 1.1 34 65 -4.7 23.5
03:00 1025 30.27 854 25.22 1.1 33.9 66 -4.6 23.8
03:05 1025 30.27 854 25.22 1 33.7 66 -4.7 23.6
03:10 1025 30.27 854 25.22 1 33.8 66 -4.7 23.5
03:15 1025 30.27 854 25.22 1.1 34 65 -4.8 23.4
03:20 1025 30.27 854 25.22 1.2 34.2 66 -4.5 23.8
03:25 1025 30.27 854 25.22 1.2 34.2 65 -4.6 23.7
03:30 1025 30.27 854 25.22 1.3 34.3 65 -4.6 23.6
03:35 1025 30.27 854 25.22 1.3 34.3 66 -4.4 24
03:40 1025 30.27 854 25.22 1 33.8 67 -4.4 24.1
03:45 1025 30.27 854 25.22 0.9 33.6 67 -4.6 23.8
03:50 1025 30.27 854 25.22 0.9 33.6 69 -4.1 24.5
03:55 1025 30.27 854 25.22 0.8 33.4 71 -4 24.9
04:00 1025 30.27 854 25.22 0.7 33.2 72 -3.9 25
04:05 1025 30.27 854 25.22 0.6 33 73 -3.8 25.2
04:10 1025 30.27 854 25.22 0.5 32.9 73 -3.8 25.1
04:15 1025 30.27 854 25.22 0.5 33 72 -3.8 25.1
04:20 1024 30.24 854 25.22 0.7 33.2 72 -3.7 25.3
04:25 1024 30.24 854 25.22 0.8 33.5 72 -3.6 25.5
04:30 1024 30.24 854 25.22 0.7 33.2 73 -3.6 25.5
04:35 1024 30.24 854 25.22 0.6 33 74 -3.5 25.7
04:40 1024 30.24 854 25.22 0.5 32.9 73 -3.8 25.1
04:45 1024 30.24 854 25.22 0.6 33.1 72 -3.8 25.2
04:50 1024 30.24 854 25.22 0.7 33.2 72 -3.8 25.2
04:55 1024 30.24 854 25.22 0.8 33.5 72 -3.6 25.5
05:00 1024 30.24 854 25.22 0.9 33.7 72 -3.5 25.7
05:05 1024 30.24 853 25.19 0.9 33.7 73 -3.5 25.8
05:10 1024 30.24 853 25.19 0.9 33.7 72 -3.5 25.8
05:15 1024 30.24 853 25.19 0.9 33.6 72 -3.5 25.7
05:20 1024 30.24 853 25.19 0.9 33.6 73 -3.5 25.8
05:25 1024 30.24 853 25.19 0.7 33.3 75 -3.3 26.1
05:30 1024 30.24 853 25.19 0.5 32.8 75 -3.4 25.8
05:35 1024 30.24 853 25.19 0.4 32.7 75 -3.5 25.7
05:40 1024 30.24 853 25.19 0.4 32.7 76 -3.4 25.9
05:45 1024 30.24 853 25.19 0.6 33 74 -3.6 25.5
05:50 1024 30.24 853 25.19 0.8 33.5 73 -3.5 25.6
05:55 1024 30.24 853 25.19 1 33.7 73 -3.3 26
06:00 1024 30.24 853 25.19 0.8 33.4 75 -3.2 26.2
06:05 1024 30.24 853 25.19 0.6 33.1 74 -3.5 25.8
06:10 1024 30.24 853 25.19 0.7 33.3 73 -3.5 25.7
06:15 1024 30.24 853 25.19 0.6 33.2 75 -3.4 26
06:20 1024 30.24 853 25.19 0.5 32.9 75 -3.4 25.9
06:25 1024 30.24 853 25.19 0.4 32.8 72 -4 24.8
06:30 1024 30.24 853 25.19 0.5 32.9 73 -3.8 25.1
06:35 1024 30.24 853 25.19 0.3 32.6 73 -3.9 25.1
06:40 1024 30.24 853 25.19 0.3 32.5 73 -4 24.9
06:45 1024 30.24 853 25.19 0.2 32.3 74 -4 24.8
06:50 1024 30.24 853 25.19 0.2 32.4 74 -4 24.9
06:55 1024 30.24 853 25.19 -0.1 31.9 75 -4 24.7
07:00 1023 30.21 853 25.19 -0.1 31.8 76 -3.9 24.9
07:05 1023 30.21 853 25.19 -0.1 31.9 76 -3.8 25.2
07:10 1023 30.21 852 25.16 -0.1 31.8 76 -3.8 25.1
07:15 1023 30.21 852 25.16 -0 31.9 76 -3.8 25.2
07:20 1023 30.21 852 25.16 0.1 32.3 75 -3.7 25.4
07:25 1023 30.21 852 25.16 0.3 32.5 75 -3.6 25.4
07:30 1023 30.21 852 25.16 0.4 32.7 74 -3.7 25.4
07:35 1023 30.21 852 25.16 0.5 32.9 74 -3.6 25.6
07:40 1023 30.21 852 25.16 0.6 33 74 -3.5 25.6
07:45 1023 30.21 852 25.16 0.7 33.2 73 -3.7 25.3
07:50 1023 30.21 852 25.16 0.8 33.5 72 -3.7 25.3
07:55 1023 30.21 852 25.16 0.8 33.5 72 -3.7 25.4
08:00 1023 30.21 852 25.16 0.9 33.5 71 -3.8 25.2
08:05 1023 30.21 852 25.16 0.9 33.7 71 -3.7 25.3
08:10 1023 30.21 852 25.16 0.9 33.6 72 -3.7 25.4
08:15 1023 30.21 852 25.16 0.9 33.5 71 -3.9 25
08:20 1023 30.21 852 25.16 0.9 33.7 71 -3.7 25.4
08:25 1023 30.21 852 25.16 0.8 33.5 71 -3.8 25.2
08:30 1022 30.18 852 25.16 1 33.7 71 -3.7 25.3
08:35 1022 30.18 852 25.16 1.1 33.9 70 -3.8 25.2
08:40 1022 30.18 852 25.16 1.2 34.1 70 -3.7 25.3
08:45 1022 30.18 852 25.16 1.3 34.3 69 -3.7 25.3
08:50 1022 30.18 852 25.16 1.5 34.7 69 -3.6 25.5
08:55 1022 30.18 852 25.16 1.5 34.8 69 -3.6 25.5
09:00 1022 30.18 851 25.13 1.7 35.1 68 -3.6 25.5
09:05 1022 30.18 851 25.13 1.8 35.3 67 -3.6 25.5
09:10 1022 30.18 851 25.13 2 35.5 67 -3.5 25.7
09:15 1022 30.18 851 25.13 2 35.6 66 -3.6 25.5
09:20 1022 30.18 851 25.13 2 35.6 67 -3.4 25.8
09:25 1022 30.18 851 25.13 2 35.6 66 -3.6 25.5
09:30 1022 30.18 851 25.13 2.2 35.9 65 -3.6 25.4
09:35 1022 30.18 851 25.13 2.3 36.2 65 -3.5 25.6
09:40 1022 30.18 851 25.13 2.4 36.4 65 -3.5 25.6
09:45 1022 30.18 851 25.13 2.6 36.6 65 -3.3 26
09:50 1022 30.18 851 25.13 2.6 36.7 65 -3.4 25.9
09:55 1022 30.18 851 25.13 2.8 37 64 -3.4 26
10:00 1022 30.18 851 25.13 3 37.3 63 -3.3 26.1
10:05 1022 30.18 851 25.13 3.1 37.6 63 -3.2 26.3
10:10 1022 30.18 851 25.13 3.3 37.9 62 -3.2 26.2
10:15 1022 30.18 851 25.13 3.5 38.2 62 -3.2 26.3
10:20 1022 30.18 851 25.13 3.7 38.7 61 -3.1 26.4
10:25 1022 30.18 851 25.13 4.1 39.3 60 -3.1 26.5
10:30 1022 30.18 851 25.13 4.2 39.5 60 -2.8 27
10:35 1022 30.18 851 25.13 4.3 39.8 60 -2.8 26.9
10:40 1021 30.15 851 25.13 4.4 40 59 -2.8 26.9
10:45 1021 30.15 850 25.1 4.5 40.1 60 -2.6 27.4
10:50 1021 30.15 850 25.1 4.6 40.3 59 -2.8 27
10:55 1021 30.15 850 25.1 4.8 40.6 57 -2.9 26.7
11:00 1021 30.15 850 25.1 5 41 57 -2.9 26.9
11:05 1021 30.15 850 25.1 5.2 41.4 56 -2.7 27.1
11:10 1021 30.15 850 25.1 5.7 42.3 55 -2.7 27.2
11:15 1021 30.15 850 25.1 6 42.7 54 -2.6 27.3
11:20 1021 30.15 850 25.1 6.2 43.1 54 -2.5 27.5
11:25 1020 30.12 850 25.1 6.3 43.4 55 -2.1 28.2
11:30 1020 30.12 850 25.1 6.4 43.5 54 -2.1 28.2
11:35 1020 30.12 850 25.1 6.4 43.6 54 -2.1 28.2
11:40 1020 30.12 850 25.1 6.7 44.1 53 -2.2 28.1
11:45 1020 30.12 849 25.07 6.9 44.4 54 -1.8 28.8
11:50 1020 30.12 849 25.07 7.1 44.8 52 -2 28.4
11:55 1020 30.12 849 25.07 7.2 44.9 52 -2 28.5
12:00 1020 30.12 849 25.07 7.3 45.2 52 -1.9 28.6
12:05 1020 30.12 849 25.07 7.6 45.7 52 -1.6 29.1
12:10 1020 30.12 849 25.07 8 46.4 50 -1.8 28.7
12:15 1020 30.12 849 25.07 8.5 47.3 48 -2 28.5
12:20 1020 30.12 849 25.07 8.4 47.1 48 -2 28.5
12:25 1020 30.12 849 25.07 8.6 47.5 47 -2.1 28.3
12:30 1020 30.12 849 25.07 8.9 48 45 -2.2 28
12:35 1020 30.12 849 25.07 9 48.2 45 -2.2 28.1
12:40 1019 30.09 849 25.07 9 48.2 46 -2 28.5
12:45 1019 30.09 849 25.07 9.3 48.7 47 -1.5 29.3
12:50 1019 30.09 848 25.04 9.4 48.9 46 -1.8 28.8
12:55 1019 30.09 848 25.04 9.4 49 46 -1.5 29.3
13:00 1019 30.09 848 25.04 9.2 48.6 48 -1.3 29.6
13:05 1019 30.09 848 25.04 8.9 48.1 49 -1.2 29.9
13:10 1019 30.09 848 25.04 8.9 48 50 -1 30.1
13:15 1019 30.09 848 25.04 8.9 47.9 50 -1 30.2
13:20 1019 30.09 848 25.04 9 48.1 49 -1 30.1
13:25 1018 30.06 847 25.01 9.2 48.5 50 -0.7 30.7
13:30 1018 30.06 847 25.01 9.4 49 49 -0.7 30.8
13:35 1018 30.06 847 25.01 9.9 49.7 48 -0.7 30.7
13:40 1018 30.06 847 25.01 10.3 50.5 44 -1.3 29.6
13:45 1018 30.06 847 25.01 10.4 50.6 45 -1.1 30
13:50 1018 30.06 847 25.01 10.4 50.7 42 -1.9 28.6
13:55 1018 30.06 847 25.01 10.5 50.9 42 -1.7 28.9
14:00 1018 30.06 847 25.01 10.7 51.3 41 -1.9 28.7
14:05 1017 30.03 847 25.01 11 51.9 43 -1.1 30.1
14:10 1017 30.03 847 25.01 11.3 52.4 43 -0.7 30.7
14:15 1017 30.03 846 24.98 11.2 52.2 43 -0.9 30.4
14:20 1017 30.03 846 24.98 11.3 52.3 42 -1.3 29.7
14:25 1017 30.03 846 24.98 11.1 51.9 43 -1.1 30.1
14:30 1017 30.03 846 24.98 10.8 51.5 43 -1.1 30
14:35 1017 30.03 846 24.98 10.8 51.5 43 -1.4 29.6
14:40 1017 30.03 846 24.98 10.6 51.1 43 -1.5 29.3
14:45 1017 30.03 846 24.98 10.5 50.8 43 -1.6 29.2
14:50 1017 30.03 846 24.98 10.5 51 44 -1.1 30.1
14:55 1016 30 846 24.98 10.5 50.8 44 -1.3 29.6
15:00 1017 30.03 846 24.98 10.4 50.7 43 -1.4 29.4
15:05 1016 30 846 24.98 10.3 50.5 44 -1.4 29.5
15:10 1016 30 846 24.98 10.1 50.2 45 -1.3 29.7
15:15 1016 30 846 24.98 10.2 50.3 44 -1.4 29.4
15:20 1016 30 846 24.98 10 50.1 45 -1.4 29.5
15:25 1016 30 845 24.95 9.9 49.7 46 -1.2 29.8
15:30 1016 30 845 24.95 9.8 49.6 47 -1.1 30
15:35 1016 30 845 24.95 9.7 49.4 45 -1.7 29
15:40 1016 30 845 24.95 9.8 49.7 46 -1.3 29.7
15:45 1016 30 845 24.95 9.8 49.6 46 -1.3 29.6
15:50 1016 30 845 24.95 9.8 49.7 46 -1.3 29.7
15:55 1016 30 845 24.95 9.8 49.7 45 -1.5 29.3
16:00 1016 30 845 24.95 9.8 49.7 46 -1.3 29.6
16:05 1016 30 845 24.95 9.8 49.6 46 -1.3 29.7
16:10 1016 30 845 24.95 9.7 49.5 46 -1.3 29.6
16:15 1015 29.97 845 24.95 9.7 49.5 45 -1.6 29.1
16:20 1015 29.97 845 24.95 9.9 49.8 45 -1.5 29.4
16:25 1015 29.97 844 24.92 9.9 49.7 46 -1.3 29.6
16:30 1015 29.97 844 24.92 9.8 49.6 46 -1.3 29.7
16:35 1015 29.97 844 24.92 9.7 49.5 46 -1.2 29.9
16:40 1015 29.97 844 24.92 9.7 49.4 46 -1.4 29.5
16:45 1015 29.97 844 24.92 9.7 49.4 46 -1.2 29.8
16:50 1015 29.97 844 24.92 9.7 49.4 46 -1.4 29.5
16:55 1015 29.97 844 24.92 9.7 49.5 46 -1.3 29.7
17:00 1015 29.97 844 24.92 9.7 49.5 46 -1.2 29.9
17:05 1015 29.97 844 24.92 9.6 49.4 47 -1.1 30.1
17:10 1014 29.94 844 24.92 9.5 49.1 48 -0.9 30.3
17:15 1014 29.94 844 24.92 9.4 48.8 49 -0.9 30.4
17:20 1014 29.94 843 24.89 9.4 48.9 48 -0.9 30.3
17:25 1014 29.94 843 24.89 9.4 48.9 48 -1.1 30.1
17:30 1014 29.94 843 24.89 9.4 48.9 48 -1 30.2
17:35 1014 29.94 843 24.89 9.3 48.8 50 -0.5 31.1
17:40 1014 29.94 843 24.89 8.9 48 51 -0.7 30.7
17:45 1014 29.94 843 24.89 9 48.2 49 -1.2 29.8
17:50 1014 29.94 843 24.89 9.1 48.4 49 -1.1 30.1
17:55 1014 29.94 843 24.89 9.1 48.3 49 -0.9 30.3
18:00 1014 29.94 843 24.89 8.9 48 51 -0.7 30.7
18:05 1013 29.91 843 24.89 8.7 47.6 52 -0.6 30.8
18:10 1013 29.91 843 24.89 8.4 47.2 52 -0.8 30.6
18:15 1013 29.91 842 24.86 8.6 47.4 50 -1.3 29.6
18:20 1013 29.91 842 24.86 8.8 47.8 50 -0.9 30.3
18:25 1013 29.91 842 24.86 8.7 47.7 49 -1.2 29.8
18:30 1013 29.91 842 24.86 8.9 48 50 -0.8 30.5
18:35 1013 29.91 842 24.86 8.8 47.9 50 -1 30.2
18:40 1013 29.91 842 24.86 8.9 48 50 -0.9 30.4
18:45 1013 29.91 842 24.86 9 48.1 48 -1.3 29.6
18:50 1013 29.91 842 24.86 9.1 48.3 48 -1.4 29.5
18:55 1013 29.91 842 24.86 9.2 48.5 48 -1.3 29.6
19:00 1013 29.91 842 24.86 9.1 48.4 49 -1.1 29.9
19:05 1013 29.91 842 24.86 9.1 48.3 48 -1.3 29.7
19:10 1013 29.91 842 24.86 9 48.3 48 -1.5 29.4
19:15 1013 29.91 842 24.86 9.3 48.7 46 -1.7 29
19:20 1012 29.88 842 24.86 9.3 48.7 47 -1.3 29.6
19:25 1012 29.88 842 24.86 9 48.2 48 -1.3 29.6
19:30 1012 29.88 841 24.83 9 48.1 48 -1.4 29.5
19:35 1012 29.88 841 24.83 9 48.1 48 -1.5 29.4
19:40 1012 29.88 841 24.83 9 48.2 47 -1.5 29.2
19:45 1012 29.88 841 24.83 8.6 47.4 53 -0.4 31.4
19:50 1012 29.88 841 24.83 7.5 45.4 56 -0.7 30.8
19:55 1012 29.88 841 24.83 7.1 44.8 56 -0.9 30.3
20:00 1012 29.88 841 24.83 7.3 45.1 55 -1.2 29.9
20:05 1011 29.85 841 24.83 7.2 45 56 -0.9 30.3
20:10 1011 29.85 841 24.83 7.1 44.7 56 -1.1 30
20:15 1011 29.85 840 24.81 7.2 44.9 55 -1.3 29.6
20:20 1011 29.85 840 24.81 7.5 45.6 52 -1.6 29.2
20:25 1011 29.85 840 24.81 8.3 47 46 -2.6 27.4
20:30 1011 29.85 840 24.81 9.2 48.6 45 -2 28.5
20:35 1011 29.85 840 24.81 9.3 48.7 47 -1.4 29.5
20:40 1011 29.85 840 24.81 9 48.3 49 -1.1 30
20:45 1011 29.85 840 24.81 9.1 48.4 47 -1.5 29.4
20:50 1011 29.85 840 24.81 9.2 48.6 49 -1 30.2
20:55 1011 29.85 840 24.81 8.9 47.9 50 -0.9 30.3
21:00 1011 29.85 840 24.81 8.7 47.7 51 -0.9 30.3
21:05 1011 29.85 840 24.81 8.5 47.4 52 -0.8 30.6
21:10 1010 29.83 840 24.81 8.5 47.3 52 -0.8 30.5
21:15 1010 29.83 840 24.81 8.5 47.2 52 -0.9 30.4
21:20 1010 29.83 840 24.81 8.6 47.4 52 -0.8 30.6
21:25 1010 29.83 840 24.81 8.5 47.3 52 -0.8 30.6
21:30 1010 29.83 839 24.78 8.5 47.2 50 -1.2 29.8
21:35 1010 29.83 839 24.78 8.6 47.4 51 -1 30.1
21:40 1010 29.83 839 24.78 8.8 47.8 49 -1.4 29.4
21:45 1010 29.83 839 24.78 8.9 48 48 -1.6 29.2
21:50 1010 29.83 839 24.78 9 48.3 48 -1.4 29.4
21:55 1010 29.83 839 24.78 9.1 48.4 47 -1.6 29.2
22:00 1010 29.83 839 24.78 9.1 48.5 47 -1.6 29.1
22:05 1010 29.83 839 24.78 9 48.2 49 -1.2 29.9
22:10 1010 29.83 839 24.78 8.6 47.4 51 -0.9 30.3
22:15 1010 29.83 839 24.78 8.3 46.9 52 -0.9 30.4
22:20 1009 29.8 839 24.78 8 46.5 51 -1.5 29.3
22:25 1009 29.8 838 24.75 8.5 47.2 50 -1.5 29.4
22:30 1009 29.8 838 24.75 8.6 47.5 48 -1.8 28.8
22:35 1009 29.8 838 24.75 8.7 47.7 48 -1.5 29.3
22:40 1009 29.8 838 24.75 8.8 47.9 46 -2.1 28.2
22:45 1009 29.8 838 24.75 9.2 48.5 45 -2 28.4
22:50 1008 29.77 838 24.75 9.3 48.7 45 -2 28.3
22:55 1008 29.77 838 24.75 9.3 48.7 45 -2.1 28.2
23:00 1008 29.77 838 24.75 9.4 48.9 43 -2.4 27.6
23:05 1008 29.77 837 24.72 9.4 48.9 44 -2.3 27.9
23:10 1008 29.77 838 24.75 9.3 48.8 45 -1.8 28.7
23:15 1008 29.77 838 24.75 9.1 48.4 44 -2.6 27.4
23:20 1008 29.77 837 24.72 9.5 49.1 42 -2.7 27.1
23:25 1008 29.77 837 24.72 9.8 49.6 42 -2.6 27.4
23:30 1008 29.77 838 24.75 9.9 49.7 41 -2.7 27.1
23:35 1008 29.77 837 24.72 10 50 41 -2.7 27.1
23:40 1008 29.77 837 24.72 9.9 49.9 42 -2.3 27.9
23:45 1008 29.77 837 24.72 9.8 49.6 43 -2.1 28.2
23:50 1008 29.77 837 24.72 9.5 49 45 -1.9 28.7
23:55 1008 29.77 837 24.72 9.3 48.8 47 -1.5 29.3
24:00 1008 29.77 838 24.75 9.2 48.6 48 -1.3 29.6